sensor_id;sensor_type;location;lat;lon;timestamp;pressure;altitude;pressure_sealevel;temperature;humidity
15558;BME280;7880;50.110;9.372;2023-05-12T00:02:35;10.70417359667481;;;10.625;100.0
15558;BME280;7880;50.110;9.372;2023-05-12T00:07:38;10.598285098024643;;;10.562;100.0
15558;BME280;7880;50.110;9.372;2023-05-12T00:12:46;10.532735139370198;;;10.562;100.0
15558;BME280;7880;50.110;9.372;2023-05-12T00:17:51;10.66887741619721;;;10.562;100.0
15558;BME280;7880;50.110;9.372;2023-05-12T00:22:55;10.673919726820895;;;10.562;100.0
15558;BME280;7880;50.110;9.372;2023-05-12T00:27:58;10.562988960329676;;;10.562;100.0
15558;BME280;7880;50.110;9.372;2023-05-12T00:33:03;10.719300535530783;;;10.625;100.0
15558;BME280;7880;50.110;9.372;2023-05-12T00:38:07;10.648708176612853;;;10.562;100.0
15558;BME280;7880;50.110;9.372;2023-05-12T00:43:11;10.512565931217978;;;10.562;100.0
15558;BME280;7880;50.110;9.372;2023-05-12T00:48:17;10.583158180123428;;;10.5;100.0
15558;BME280;7880;50.110;9.372;2023-05-12T00:53:20;10.573073569644475;;;10.5;100.0
15558;BME280;7880;50.110;9.372;2023-05-12T00:58:25;10.573073569644475;;;10.562;100.0
15558;BME280;7880;50.110;9.372;2023-05-12T01:03:30;10.64366586744436;;;10.625;100.0
15558;BME280;7880;50.110;9.372;2023-05-12T01:08:34;10.562988960329676;;;10.562;100.0
15558;BME280;7880;50.110;9.372;2023-05-12T01:13:38;10.618454325967468;;;10.562;100.0
15558;BME280;7880;50.110;9.372;2023-05-12T01:18:49;10.613412018545205;;;10.562;100.0
15558;BME280;7880;50.110;9.372;2023-05-12T01:24:00;10.60836971141398;;;10.562;100.0
15558;BME280;7880;50.110;9.372;2023-05-12T01:28:55;10.67896203773562;;;10.625;100.0
15558;BME280;7880;50.110;9.372;2023-05-12T01:33:57;10.663835105864564;;;10.562;100.0
15558;BME280;7880;50.110;9.372;2023-05-12T01:39:01;10.63358124998049;;;10.562;100.0
15558;BME280;7880;50.110;9.372;2023-05-12T01:44:05;10.593242791766533;;;10.625;100.0
15558;BME280;7880;50.110;9.372;2023-05-12T01:49:12;10.60836971141398;;;10.562;100.0
15558;BME280;7880;50.110;9.372;2023-05-12T01:54:15;10.562988960329676;;;10.562;100.0
15558;BME280;7880;50.110;9.372;2023-05-12T01:59:19;10.699131284304894;;;10.625;100.0
15558;BME280;7880;50.110;9.372;2023-05-12T02:04:23;10.68904666043818;;;10.625;100.0
15558;BME280;7880;50.110;9.372;2023-05-12T02:09:26;10.578115874738433;;;10.562;100.0
15558;BME280;7880;50.110;9.372;2023-05-12T02:14:30;10.532735139370198;;;10.5;100.0
15558;BME280;7880;50.110;9.372;2023-05-12T02:24:38;10.517608232819475;;;10.5;100.0
15558;BME280;7880;50.110;9.372;2023-05-12T02:29:41;10.482312127720798;;;10.437;100.0
15558;BME280;7880;50.110;9.372;2023-05-12T02:34:46;10.472227528883376;;;10.437;100.0
15558;BME280;7880;50.110;9.372;2023-05-12T02:39:50;10.497439028159715;;;10.5;100.0
15558;BME280;7880;50.110;9.372;2023-05-12T02:44:54;10.573073569644475;;;10.562;100.0
15558;BME280;7880;50.110;9.372;2023-05-12T02:50:09;10.60836971141398;;;10.5;100.0
15558;BME280;7880;50.110;9.372;2023-05-12T02:55:05;10.502481328888098;;;10.437;100.0
15558;BME280;7880;50.110;9.372;2023-05-12T03:00:08;10.593242791766533;;;10.562;100.0
15558;BME280;7880;50.110;9.372;2023-05-12T03:05:11;10.497439028159715;;;10.5;100.0
15558;BME280;7880;50.110;9.372;2023-05-12T03:10:16;10.517608232819475;;;10.437;100.0
15558;BME280;7880;50.110;9.372;2023-05-12T03:15:20;10.603327404573793;;;10.562;100.0
15558;BME280;7880;50.110;9.372;2023-05-12T03:20:24;10.477269828156569;;;10.437;100.0
15558;BME280;7880;50.110;9.372;2023-05-12T03:25:36;10.507523629907519;;;10.437;100.0
15558;BME280;7880;50.110;9.372;2023-05-12T03:30:40;10.55290435217903;;;10.5;100.0
15558;BME280;7880;50.110;9.372;2023-05-12T03:35:37;10.452058334700997;;;10.437;100.0
15558;BME280;7880;50.110;9.372;2023-05-12T03:40:46;10.527692836895586;;;10.5;100.0
15558;BME280;7880;50.110;9.372;2023-05-12T03:45:47;10.426846848521382;;;10.437;100.0
15558;BME280;7880;50.110;9.372;2023-05-12T03:50:52;10.431889145175228;;;10.375;100.0
15558;BME280;7880;50.110;9.372;2023-05-12T03:55:56;10.517608232819475;;;10.5;100.0
15558;BME280;7880;50.110;9.372;2023-05-12T04:01:02;10.431889145175228;;;10.437;100.0
15558;BME280;7880;50.110;9.372;2023-05-12T04:06:08;10.315916395769454;;;10.25;100.0
15558;BME280;7880;50.110;9.372;2023-05-12T04:11:15;10.376423897990026;;;10.312;100.0
15558;BME280;7880;50.110;9.372;2023-05-12T04:16:21;10.416762256086804;;;10.375;100.0
15558;BME280;7880;50.110;9.372;2023-05-12T04:21:26;10.356254725926556;;;10.312;100.0
15558;BME280;7880;50.110;9.372;2023-05-12T04:26:32;10.38146619173349;;;10.312;100.0
15558;BME280;7880;50.110;9.372;2023-05-12T04:31:38;10.431889145175228;;;10.375;100.0
15558;BME280;7880;50.110;9.372;2023-05-12T04:36:43;10.336085558519699;;;10.375;100.0
15558;BME280;7880;50.110;9.372;2023-05-12T04:41:47;10.341127849934855;;;10.375;100.0
15558;BME280;7880;50.110;9.372;2023-05-12T04:46:55;10.472227528883376;;;10.5;100.0
15558;BME280;7880;50.110;9.372;2023-05-12T04:52:04;10.573073569644475;;;10.5;100.0
15558;BME280;7880;50.110;9.372;2023-05-12T04:57:05;10.527692836895586;;;10.5;100.0
15558;BME280;7880;50.110;9.372;2023-05-12T05:02:09;10.663835105864564;;;10.625;100.0
15558;BME280;7880;50.110;9.372;2023-05-12T05:07:16;10.694088972226018;;;10.687;100.0
15558;BME280;7880;50.110;9.372;2023-05-12T05:12:21;10.699131284304894;;;10.687;100.0
15558;BME280;7880;50.110;9.372;2023-05-12T05:17:42;10.825189180864253;;;10.812;100.0
15558;BME280;7880;50.110;9.372;2023-05-12T05:22:39;10.855443103105063;;;10.812;100.0
15558;BME280;7880;50.110;9.372;2023-05-12T05:27:40;10.931077954545618;;;10.937;100.0
15558;BME280;7880;50.110;9.372;2023-05-12T05:32:47;10.855443103105063;;;10.875;100.0
15558;BME280;7880;50.110;9.372;2023-05-12T05:37:53;10.991585882846266;;;10.937;100.0
15558;BME280;7880;50.110;9.372;2023-05-12T05:42:57;11.092432523146272;;;11.062;100.0
15558;BME280;7880;50.110;9.372;2023-05-12T05:48:04;11.03192452499643;;;11.062;100.0
15558;BME280;7880;50.110;9.372;2023-05-12T05:53:08;11.183194598951378;;;11.125;100.0
15558;BME280;7880;50.110;9.372;2023-05-12T05:58:15;11.047051520604873;;;11.0;100.0
15558;BME280;7880;50.110;9.372;2023-05-12T06:03:26;11.228575672215083;;;11.187;100.0
15558;BME280;7880;50.110;9.372;2023-05-12T06:08:29;11.238660358363996;;;11.187;100.0
15558;BME280;7880;50.110;9.372;2023-05-12T06:13:35;11.238660358363996;;;11.187;100.0
15558;BME280;7880;50.110;9.372;2023-05-12T06:18:37;11.299168499704683;;;11.25;100.0
15558;BME280;7880;50.110;9.372;2023-05-12T06:23:39;11.016797532007331;;;11.062;100.0
15558;BME280;7880;50.110;9.372;2023-05-12T06:28:45;11.082347853877582;;;11.062;100.0
15558;BME280;7880;50.110;9.372;2023-05-12T06:33:51;10.966374240961159;;;11.0;100.0
15558;BME280;7880;50.110;9.372;2023-05-12T06:38:57;11.072263185773044;;;11.0;100.0
15558;BME280;7880;50.110;9.372;2023-05-12T06:44:12;11.102517193579114;;;11.062;100.0
15558;BME280;7880;50.110;9.372;2023-05-12T06:49:08;11.178152258932823;;;11.125;100.0
15558;BME280;7880;50.110;9.372;2023-05-12T06:54:18;11.20840630340972;;;11.125;100.0
15558;BME280;7880;50.110;9.372;2023-05-12T06:59:21;11.183194598951378;;;11.125;100.0
15558;BME280;7880;50.110;9.372;2023-05-12T07:04:26;11.238660358363996;;;11.187;100.0
15558;BME280;7880;50.110;9.372;2023-05-12T07:09:45;11.3748037353158;;;11.25;100.0
15558;BME280;7880;50.110;9.372;2023-05-12T07:14:45;11.465566104487516;;;11.375;100.0
15558;BME280;7880;50.110;9.372;2023-05-12T07:19:42;11.576498017087578;;;11.562;100.0
15558;BME280;7880;50.110;9.372;2023-05-12T07:24:47;11.591625106992433;;;11.562;100.0
15558;BME280;7880;50.110;9.372;2023-05-12T07:29:53;11.75298089562566;;;11.75;100.0
15558;BME280;7880;50.110;9.372;2023-05-12T07:34:58;11.964760820480297;;;11.937;100.0
15558;BME280;7880;50.110;9.372;2023-05-12T07:40:05;12.161414067540317;;;12.125;100.0
15558;BME280;7880;50.110;9.372;2023-05-12T07:45:11;12.277389266906539;;;12.25;100.0
15558;BME280;7880;50.110;9.372;2023-05-12T07:50:17;12.252177253947593;;;12.312;100.0
15558;BME280;7880;50.110;9.372;2023-05-12T07:55:22;12.448831147985766;;;12.437;100.0
15558;BME280;7880;50.110;9.372;2023-05-12T08:00:28;12.705994600430131;;;12.687;100.0
15558;BME280;7880;50.110;9.372;2023-05-12T08:05:34;12.569849148957292;;;12.625;100.0
15558;BME280;7880;50.110;9.372;2023-05-12T08:10:44;13.008540807757527;;;13.0;100.0
15558;BME280;7880;50.110;9.372;2023-05-12T08:15:48;13.19511149121099;;;13.187;100.0
15558;BME280;7880;50.110;9.372;2023-05-12T08:20:53;13.366555173235247;;;13.375;100.0
15558;BME280;7880;50.110;9.372;2023-05-12T08:25:58;13.205196404369781;;;13.312;100.0
15558;BME280;7880;50.110;9.372;2023-05-12T08:31:05;13.270748368278145;;;13.25;100.0
15558;BME280;7880;50.110;9.372;2023-05-12T08:36:09;13.190069035068154;;;13.25;100.0
15558;BME280;7880;50.110;9.372;2023-05-12T08:41:18;13.230408692359925;;;13.187;100.0
15558;BME280;7880;50.110;9.372;2023-05-12T08:46:24;13.22536623417982;;;13.187;100.0
15558;BME280;7880;50.110;9.372;2023-05-12T08:51:31;13.149729396402837;;;13.125;100.0
15558;BME280;7880;50.110;9.372;2023-05-12T08:56:33;13.301003137440421;;;13.25;100.0
15558;BME280;7880;50.110;9.372;2023-05-12T09:01:48;13.391767507791519;;;13.437;100.0
15558;BME280;7880;50.110;9.372;2023-05-12T09:06:46;13.517829289712244;;;13.5;100.0
15558;BME280;7880;50.110;9.372;2023-05-12T09:11:55;13.633806289732457;;;13.687;100.0
15558;BME280;7880;50.110;9.372;2023-05-12T09:16:57;13.669103668123716;;;13.75;100.0
15558;BME280;7880;50.110;9.372;2023-05-12T09:22:00;13.613636365626007;;;13.625;100.0
15558;BME280;7880;50.110;9.372;2023-05-12T09:27:09;13.598508925602072;;;13.625;100.0
15558;BME280;7880;50.110;9.372;2023-05-12T09:32:11;13.64389125353191;;;13.562;100.0
15558;BME280;7880;50.110;9.372;2023-05-12T09:37:19;13.608593885326991;;;13.562;100.0
15558;BME280;7880;50.110;9.372;2023-05-12T09:42:33;13.457319611689309;;;13.5;100.0
15558;BME280;7880;50.110;9.372;2023-05-12T09:47:33;13.633806289732457;;;13.687;100.0
15558;BME280;7880;50.110;9.372;2023-05-12T09:52:37;13.598508925602072;;;13.562;100.0
15558;BME280;7880;50.110;9.372;2023-05-12T09:57:45;13.74474095555488;;;13.75;100.0
15558;BME280;7880;50.110;9.372;2023-05-12T10:02:47;13.845590773993171;;;13.812;100.0
15558;BME280;7880;50.110;9.372;2023-05-12T10:07:53;13.880888237949694;;;13.812;100.0
15558;BME280;7880;50.110;9.372;2023-05-12T10:12:58;14.102758337935665;;;14.062;100.0
15558;BME280;7880;50.110;9.372;2023-05-12T10:18:01;13.880888237949694;;;13.937;100.0
15558;BME280;7880;50.110;9.372;2023-05-12T10:23:12;14.01199322892935;;;14.125;100.0
15558;BME280;7880;50.110;9.372;2023-05-12T10:28:12;14.032163245003904;;;14.0;100.0
15558;BME280;7880;50.110;9.372;2023-05-12T10:33:22;14.395224330626661;;;14.312;100.0
15558;BME280;7880;50.110;9.372;2023-05-12T10:38:25;14.637265892565484;;;14.562;100.0
15558;BME280;7880;50.110;9.372;2023-05-12T10:43:37;14.375054230733076;;;14.375;100.0
15558;BME280;7880;50.110;9.372;2023-05-12T10:48:35;14.506159963278332;;;14.5;100.0
15558;BME280;7880;50.110;9.372;2023-05-12T10:53:37;14.475904776767129;;;14.5;100.0
15558;BME280;7880;50.110;9.372;2023-05-12T10:59:05;14.758286924991989;;;14.625;100.0
15558;BME280;7880;50.110;9.372;2023-05-12T11:03:45;14.990244372381131;;;14.937;100.0
15558;BME280;7880;50.110;9.372;2023-05-12T11:08:50;15.020499737007777;;;15.0;100.0
15558;BME280;7880;50.110;9.372;2023-05-12T11:13:56;15.131436163611943;;;15.125;100.0
15558;BME280;7880;50.110;9.372;2023-05-12T11:19:02;15.428948184940964;;;15.375;100.0
15558;BME280;7880;50.110;9.372;2023-05-12T11:24:32;15.842441151314414;;;15.687;100.0
15558;BME280;7880;50.110;9.372;2023-05-12T11:29:14;15.96850646935054;;;16.0;100.0
15558;BME280;7880;50.110;9.372;2023-05-12T11:34:21;15.706290812144289;;;15.812;100.0
15558;BME280;7880;50.110;9.372;2023-05-12T11:39:40;15.50962958568707;;;15.5;100.0
15558;BME280;7880;50.110;9.372;2023-05-12T11:44:35;15.428948184940964;;;15.5;100.0
15558;BME280;7880;50.110;9.372;2023-05-12T11:49:44;15.111265893751987;;;15.125;100.0
15558;BME280;7880;50.110;9.372;2023-05-12T11:54:37;15.065882803592832;;;15.0;100.0
15558;BME280;7880;50.110;9.372;2023-05-12T11:59:55;14.990244372381131;;;14.937;100.0
15558;BME280;7880;50.110;9.372;2023-05-12T12:04:45;15.171776717301691;;;15.062;100.0
15558;BME280;7880;50.110;9.372;2023-05-12T12:09:56;15.423905599868158;;;15.375;100.0
15558;BME280;7880;50.110;9.372;2023-05-12T12:14:59;15.62056663336698;;;15.562;100.0
15558;BME280;7880;50.110;9.372;2023-05-12T12:19:58;15.948336006241153;;;15.937;100.0
15558;BME280;7880;50.110;9.372;2023-05-12T12:25:03;15.655864814441884;;;15.812;100.0
15558;BME280;7880;50.110;9.372;2023-05-12T12:30:08;15.565098091919207;;;15.562;100.0
15558;BME280;7880;50.110;9.372;2023-05-12T12:35:13;15.948336006241153;;;15.812;100.0
15558;BME280;7880;50.110;9.372;2023-05-12T12:40:16;16.412257835880155;;;16.312;100.0
15558;BME280;7880;50.110;9.372;2023-05-12T12:45:19;16.200467129802565;;;16.312;100.0
15558;BME280;7880;50.110;9.372;2023-05-12T12:50:34;15.928165547788376;;;15.937;100.0
15558;BME280;7880;50.110;9.372;2023-05-12T12:55:35;15.902952481270768;;;15.875;100.0
15558;BME280;7880;50.110;9.372;2023-05-12T13:00:32;15.721418617130258;;;15.75;100.0
15558;BME280;7880;50.110;9.372;2023-05-12T13:05:42;15.716376015177229;;;15.625;100.0
15558;BME280;7880;50.110;9.372;2023-05-12T13:10:41;15.88278203329537;;;15.812;100.0
15558;BME280;7880;50.110;9.372;2023-05-12T13:15:44;15.665950011654058;;;15.687;100.0
15558;BME280;7880;50.110;9.372;2023-05-12T13:20:48;16.03910312690423;;;15.875;100.0
15558;BME280;7880;50.110;9.372;2023-05-12T13:25:52;15.933208161965013;;;15.937;100.0
15558;BME280;7880;50.110;9.372;2023-05-12T13:30:56;16.15508347386494;;;16.062;100.0
15558;BME280;7880;50.110;9.372;2023-05-12T13:36:02;16.276106608752162;;;16.187;100.0
15558;BME280;7880;50.110;9.372;2023-05-12T13:41:05;16.941736847162247;;;16.75;100.0
15558;BME280;7880;50.110;9.372;2023-05-12T13:46:12;16.785414138581835;;;16.875;100.0
15558;BME280;7880;50.110;9.372;2023-05-12T13:52:06;17.208998900005827;;;17.125;100.0
15558;BME280;7880;50.110;9.372;2023-05-12T13:57:09;17.183785463869572;;;17.187;100.0
15558;BME280;7880;50.110;9.372;2023-05-12T14:02:13;17.178742777515435;;;17.187;100.0
15558;BME280;7880;50.110;9.372;2023-05-12T14:07:25;17.350194276828553;;;17.312;100.0
15558;BME280;7880;50.110;9.372;2023-05-12T14:12:25;16.96695021344931;;;17.0;100.0
15558;BME280;7880;50.110;9.372;2023-05-12T14:17:31;17.027462322224164;;;17.0;100.0
15558;BME280;7880;50.110;9.372;2023-05-12T14:22:45;17.19387083745096;;;17.125;100.0
15558;BME280;7880;50.110;9.372;2023-05-12T14:27:41;16.8560114562104;;;16.937;100.0
15558;BME280;7880;50.110;9.372;2023-05-12T14:32:47;16.55345192514942;;;16.562;100.0
15558;BME280;7880;50.110;9.372;2023-05-12T14:37:52;16.573622527957195;;;16.5;100.0
15558;BME280;7880;50.110;9.372;2023-05-12T14:43:04;16.58875048311893;;;16.562;100.0
15558;BME280;7880;50.110;9.372;2023-05-12T14:48:04;16.674475611845264;;;16.562;100.0
15558;BME280;7880;50.110;9.372;2023-05-12T14:53:08;16.412257835880155;;;16.437;100.0
15558;BME280;7880;50.110;9.372;2023-05-12T14:58:18;16.613963747542584;;;16.5;100.0
15558;BME280;7880;50.110;9.372;2023-05-12T15:03:20;16.684560926636912;;;16.625;100.0
15558;BME280;7880;50.110;9.372;2023-05-12T15:08:31;16.593793135421585;;;16.562;100.0
15558;BME280;7880;50.110;9.372;2023-05-12T15:13:31;16.43242840609164;;;16.375;100.0
15558;BME280;7880;50.110;9.372;2023-05-12T15:18:35;16.361831430724123;;;16.312;100.0
15558;BME280;7880;50.110;9.372;2023-05-12T15:23:40;16.129870341863715;;;16.187;99.47846464040963
15558;BME280;7880;50.110;9.372;2023-05-12T15:28:44;16.260978707723552;;;16.125;100.0
15558;BME280;7880;50.110;9.372;2023-05-12T15:33:49;16.170211356558138;;;16.062;100.0
15558;BME280;7880;50.110;9.372;2023-05-12T15:38:55;16.170211356558138;;;16.125;100.0
15558;BME280;7880;50.110;9.372;2023-05-12T15:44:18;15.847483760543401;;;15.937;100.0
15558;BME280;7880;50.110;9.372;2023-05-12T15:49:05;15.918080320308217;;;15.812;100.0
15558;BME280;7880;50.110;9.372;2023-05-12T15:54:12;16.003804790996945;;;15.875;100.0
15558;BME280;7880;50.110;9.372;2023-05-12T15:59:19;15.928165547788376;;;15.875;100.0
15558;BME280;7880;50.110;9.372;2023-05-12T16:07:47;15.73654642473557;;;15.625;100.0
15558;BME280;7880;50.110;9.372;2023-05-12T16:12:59;15.721418617130258;;;15.625;100.0
15558;BME280;7880;50.110;9.372;2023-05-12T16:17:57;15.80714289486059;;;15.687;100.0
15558;BME280;7880;50.110;9.372;2023-05-12T16:23:04;15.907995093992213;;;15.75;100.0
15558;BME280;7880;50.110;9.372;2023-05-12T16:28:08;15.660907412902452;;;15.625;100.0
15558;BME280;7880;50.110;9.372;2023-05-12T16:33:15;15.665950011654058;;;15.562;100.0
15558;BME280;7880;50.110;9.372;2023-05-12T16:38:18;15.60543884584331;;;15.5;100.0
15558;BME280;7880;50.110;9.372;2023-05-12T16:43:23;15.524757356621558;;;15.437;100.0
15558;BME280;7880;50.110;9.372;2023-05-12T16:48:34;15.363394601695472;;;15.25;100.0
15558;BME280;7880;50.110;9.372;2023-05-12T16:53:37;15.363394601695472;;;15.25;100.0
15558;BME280;7880;50.110;9.372;2023-05-12T16:58:48;15.272628183016787;;;15.125;100.0
15558;BME280;7880;50.110;9.372;2023-05-12T17:03:47;15.161691577133023;;;15.062;100.0
15558;BME280;7880;50.110;9.372;2023-05-12T17:08:52;15.106223327014595;;;14.937;100.0
15558;BME280;7880;50.110;9.372;2023-05-12T17:13:58;15.11630846078042;;;14.937;100.0
15558;BME280;7880;50.110;9.372;2023-05-12T17:19:03;15.010414614301407;;;14.812;100.0
15558;BME280;7880;50.110;9.372;2023-05-12T17:24:10;14.909563451266148;;;14.75;100.0
15558;BME280;7880;50.110;9.372;2023-05-12T17:29:16;15.060840239474782;;;14.875;100.0
15558;BME280;7880;50.110;9.372;2023-05-12T17:34:22;15.030584860878298;;;14.875;100.0
15558;BME280;7880;50.110;9.372;2023-05-12T17:39:28;14.879308125056559;;;14.75;100.0
15558;BME280;7880;50.110;9.372;2023-05-12T17:44:34;14.849052809324348;;;14.625;100.0
15558;BME280;7880;50.110;9.372;2023-05-12T17:49:42;14.889393232628937;;;14.625;100.0
15558;BME280;7880;50.110;9.372;2023-05-12T17:54:45;14.914606006653049;;;14.687;100.0
15558;BME280;7880;50.110;9.372;2023-05-12T17:59:51;14.869223018648336;;;14.687;100.0
15558;BME280;7880;50.110;9.372;2023-05-12T18:04:56;14.793584757694044;;;14.625;100.0
15558;BME280;7880;50.110;9.372;2023-05-12T18:10:07;14.712904018186965;;;14.562;100.0
15558;BME280;7880;50.110;9.372;2023-05-12T18:15:10;14.576755439216504;;;14.437;100.0
15558;BME280;7880;50.110;9.372;2023-05-12T18:20:15;14.475904776767129;;;14.25;100.0
15558;BME280;7880;50.110;9.372;2023-05-12T18:25:20;14.344799089623848;;;14.125;100.0
15558;BME280;7880;50.110;9.372;2023-05-12T18:30:25;13.931313211197267;;;13.812;100.0
15558;BME280;7880;50.110;9.372;2023-05-12T18:35:30;14.072503291122848;;;13.812;100.0
15558;BME280;7880;50.110;9.372;2023-05-12T18:40:45;14.1430984166509;;;13.75;100.0
15558;BME280;7880;50.110;9.372;2023-05-12T18:45:41;14.001908222638303;;;13.687;100.0
15558;BME280;7880;50.110;9.372;2023-05-12T18:50:55;13.810293324297527;;;13.562;100.0
15558;BME280;7880;50.110;9.372;2023-05-12T18:55:51;13.78003837876604;;;13.437;100.0
15558;BME280;7880;50.110;9.372;2023-05-12T19:01:00;13.820378308469662;;;13.5;100.0
15558;BME280;7880;50.110;9.372;2023-05-12T19:06:01;13.447234669426688;;;13.312;100.0
15558;BME280;7880;50.110;9.372;2023-05-12T19:11:09;13.42202231886331;;;13.187;100.0
15558;BME280;7880;50.110;9.372;2023-05-12T19:16:13;13.134602036705473;;;12.937;100.0
15558;BME280;7880;50.110;9.372;2023-05-12T19:21:23;13.023668145627017;;;12.812;100.0
15558;BME280;7880;50.110;9.372;2023-05-12T19:26:26;12.88752219909802;;;12.687;100.0
15558;BME280;7880;50.110;9.372;2023-05-12T19:31:34;12.61018851986737;;;12.375;100.0
15558;BME280;7880;50.110;9.372;2023-05-12T19:36:35;12.605146097484976;;;12.375;100.0
15558;BME280;7880;50.110;9.372;2023-05-12T19:41:40;12.554721889668144;;;12.187;100.0
15558;BME280;7880;50.110;9.372;2023-05-12T19:46:47;12.312686097272671;;;12.0;100.0
15558;BME280;7880;50.110;9.372;2023-05-12T19:51:53;12.257219655957305;;;11.875;100.0
15558;BME280;7880;50.110;9.372;2023-05-12T19:57:32;11.687430070550182;;;11.625;100.0
15558;BME280;7880;50.110;9.372;2023-05-12T20:02:38;12.040396632347257;;;11.625;100.0
15558;BME280;7880;50.110;9.372;2023-05-12T20:07:45;11.56137092980207;;;11.312;100.0
15558;BME280;7880;50.110;9.372;2023-05-12T20:12:47;11.778192764520645;;;11.375;100.0
15558;BME280;7880;50.110;9.372;2023-05-12T20:17:52;11.662218227848644;;;11.312;100.0
15558;BME280;7880;50.110;9.372;2023-05-12T20:22:56;11.465566104487516;;;11.187;100.0
15558;BME280;7880;50.110;9.372;2023-05-12T20:28:02;11.284041460440495;;;11.0;100.0
15558;BME280;7880;50.110;9.372;2023-05-12T20:33:07;11.243702701875009;;;10.937;100.0
15558;BME280;7880;50.110;9.372;2023-05-12T20:38:12;11.289083806570853;;;11.125;100.0
15558;BME280;7880;50.110;9.372;2023-05-12T20:43:18;10.805019905191148;;;10.625;100.0
15558;BME280;7880;50.110;9.372;2023-05-12T20:48:23;10.976458896842086;;;10.687;100.0
15558;BME280;7880;50.110;9.372;2023-05-12T20:53:35;10.931077954545618;;;10.687;100.0
15558;BME280;7880;50.110;9.372;2023-05-12T20:58:34;10.865527746180305;;;10.687;100.0
15558;BME280;7880;50.110;9.372;2023-05-12T21:03:41;10.67896203773562;;;10.437;100.0
15558;BME280;7880;50.110;9.372;2023-05-12T21:08:49;10.62349663368077;;;10.437;100.0
15558;BME280;7880;50.110;9.372;2023-05-12T21:13:52;10.62349663368077;;;10.375;100.0
15558;BME280;7880;50.110;9.372;2023-05-12T21:18:58;10.411719960306073;;;10.187;100.0
15558;BME280;7880;50.110;9.372;2023-05-12T21:24:04;10.39155078009353;;;10.062;100.0
15558;BME280;7880;50.110;9.372;2023-05-12T21:29:11;10.275578084238806;;;10.125;100.0
15558;BME280;7880;50.110;9.372;2023-05-12T21:34:19;10.336085558519699;;;10.062;100.0
15558;BME280;7880;50.110;9.372;2023-05-12T21:39:24;10.33104326739558;;;10.062;100.0
15558;BME280;7880;50.110;9.372;2023-05-12T21:44:29;10.189859234081814;;;9.937;100.0
15558;BME280;7880;50.110;9.372;2023-05-12T21:49:34;10.038590880163246;;;9.75;100.0
15558;BME280;7880;50.110;9.372;2023-05-12T21:54:39;10.00833724081167;;;9.812;100.0
15558;BME280;7880;50.110;9.372;2023-05-12T22:00:06;9.816731101559707;;;9.687;100.0
15558;BME280;7880;50.110;9.372;2023-05-12T22:04:53;9.468815765180626;;;9.437;100.0
15558;BME280;7880;50.110;9.372;2023-05-12T22:09:56;9.811688840412534;;;9.562;100.0
15558;BME280;7880;50.110;9.372;2023-05-12T22:15:03;9.544449416088174;;;9.5;100.0
15558;BME280;7880;50.110;9.372;2023-05-12T22:20:09;9.604956383962417;;;9.375;100.0
15558;BME280;7880;50.110;9.372;2023-05-12T22:25:13;9.82681562472717;;;9.562;100.0
15558;BME280;7880;50.110;9.372;2023-05-12T22:30:19;9.7814352796413;;;9.562;100.0
15558;BME280;7880;50.110;9.372;2023-05-12T22:35:26;10.078929082263494;;;9.875;100.0
15558;BME280;7880;50.110;9.372;2023-05-12T22:40:35;10.613412018545205;;;10.375;100.0
15558;BME280;7880;50.110;9.372;2023-05-12T22:45:38;11.157982901768992;;;11.062;100.0
15558;BME280;7880;50.110;9.372;2023-05-12T22:50:39;11.183194598951378;;;11.187;100.0
15558;BME280;7880;50.110;9.372;2023-05-12T22:55:50;11.18823693926097;;;11.187;100.0
15558;BME280;7880;50.110;9.372;2023-05-12T23:00:52;11.223533329577185;;;11.25;100.0
15558;BME280;7880;50.110;9.372;2023-05-12T23:05:56;11.1932792798616;;;11.187;100.0
15558;BME280;7880;50.110;9.372;2023-05-12T23:11:02;10.996628212096402;;;11.0;100.0
15558;BME280;7880;50.110;9.372;2023-05-12T23:16:13;10.779808317148127;;;10.812;100.0
15558;BME280;7880;50.110;9.372;2023-05-12T23:21:15;10.714258222287754;;;10.687;100.0
15558;BME280;7880;50.110;9.372;2023-05-12T23:26:18;10.845358461193973;;;10.812;100.0
15558;BME280;7880;50.110;9.372;2023-05-12T23:31:24;10.714258222287754;;;10.625;100.0
15558;BME280;7880;50.110;9.372;2023-05-12T23:36:31;10.557946656108834;;;10.562;100.0
15558;BME280;7880;50.110;9.372;2023-05-12T23:41:36;10.573073569644475;;;10.5;100.0
15558;BME280;7880;50.110;9.372;2023-05-12T23:46:42;10.709215909335763;;;10.562;100.0
15558;BME280;7880;50.110;9.372;2023-05-12T23:51:47;10.865527746180305;;;10.75;100.0
15558;BME280;7880;50.110;9.372;2023-05-12T23:56:58;10.7596390519524;;;10.687;100.0
